createdAt,value
2023-01-29T00:02:01.133Z,-0.49
2023-01-29T00:04:29.260Z,-0.44
2023-01-29T00:06:57.119Z,-0.41
2023-01-29T00:09:25.184Z,-0.40
2023-01-29T00:11:53.158Z,-0.40
2023-01-29T00:14:21.446Z,-0.43
2023-01-29T00:16:49.348Z,-0.43
2023-01-29T00:19:17.746Z,-0.42
2023-01-29T00:21:46.130Z,-0.41
2023-01-29T00:24:14.103Z,-0.40
2023-01-29T00:26:43.290Z,-0.43
2023-01-29T00:29:11.684Z,-0.43
2023-01-29T00:31:39.844Z,-0.48
2023-01-29T00:34:08.740Z,-0.45
2023-01-29T00:36:36.872Z,-0.44
2023-01-29T00:39:11.031Z,-0.43
2023-01-29T00:41:58.188Z,-0.52
2023-01-29T00:44:44.601Z,-0.48
2023-01-29T00:47:31.012Z,-0.46
2023-01-29T00:49:59.784Z,-0.45
2023-01-29T00:52:28.849Z,-0.47
2023-01-29T00:54:57.832Z,-0.55
2023-01-29T00:57:27.449Z,-0.49
2023-01-29T00:59:55.610Z,-0.55
2023-01-29T01:02:42.960Z,-0.55
2023-01-29T01:05:14.224Z,-0.53
2023-01-29T01:07:42.237Z,-0.54
2023-01-29T01:10:30.581Z,-0.54
2023-01-29T01:12:58.761Z,-0.55
2023-01-29T01:15:28.772Z,-0.69
2023-01-29T01:17:58.736Z,-0.73
2023-01-29T01:20:27.867Z,-0.74
2023-01-29T01:22:56.734Z,-0.69
2023-01-29T01:25:25.331Z,-0.70
2023-01-29T01:27:53.831Z,-0.76
2023-01-29T01:30:22.164Z,-0.81
2023-01-29T01:32:50.387Z,-0.76
2023-01-29T01:35:18.711Z,-0.75
2023-01-29T01:37:46.765Z,-0.81
2023-01-29T01:40:18.520Z,-0.88
2023-01-29T01:42:53.745Z,-0.94
2023-01-29T01:45:24.770Z,-0.90
2023-01-29T01:48:01.774Z,-0.93
2023-01-29T01:50:33.831Z,-0.91
2023-01-29T01:53:05.288Z,-0.90
2023-01-29T01:55:35.776Z,-0.81
2023-01-29T01:58:07.648Z,-0.79
2023-01-29T02:00:35.832Z,-0.81
2023-01-29T02:03:22.921Z,-0.81
2023-01-29T02:06:12.114Z,-0.89
2023-01-29T02:09:15.088Z,-0.82
2023-01-29T02:11:43.067Z,-0.87
2023-01-29T02:14:12.006Z,-0.86
2023-01-29T02:16:40.022Z,-0.97
2023-01-29T02:19:17.067Z,-0.94
2023-01-29T02:21:45.146Z,-0.90
2023-01-29T02:24:17.464Z,-0.87
2023-01-29T02:26:48.542Z,-0.87
2023-01-29T02:29:22.787Z,-0.84
2023-01-29T02:31:57.618Z,-0.80
2023-01-29T02:34:52.806Z,-0.86
2023-01-29T02:37:22.209Z,-0.81
2023-01-29T02:40:02.101Z,-0.78
2023-01-29T02:42:36.024Z,-0.76
2023-01-29T02:45:08.045Z,-0.75
2023-01-29T02:47:50.243Z,-0.74
2023-01-29T02:50:18.475Z,-0.74
2023-01-29T02:52:57.025Z,-0.74
2023-01-29T02:55:51.358Z,-0.71
2023-01-29T02:58:19.630Z,-0.70
2023-01-29T03:00:48.556Z,-0.67
2023-01-29T03:03:18.906Z,-0.67
2023-01-29T03:06:00.039Z,-0.60
2023-01-29T03:08:42.155Z,-0.52
2023-01-29T03:11:14.602Z,-0.47
2023-01-29T03:13:45.544Z,-0.46
2023-01-29T03:16:26.850Z,-0.43
2023-01-29T03:18:57.731Z,-0.41
2023-01-29T03:21:59.601Z,-0.51
2023-01-29T03:24:50.826Z,-0.44
2023-01-29T03:27:39.460Z,-0.47
2023-01-29T03:30:29.652Z,-0.42
2023-01-29T03:33:07.165Z,-0.40
2023-01-29T03:35:39.664Z,-0.42
2023-01-29T03:38:10.182Z,-0.45
2023-01-29T03:40:58.753Z,-0.49
2023-01-29T03:43:37.656Z,-0.54
2023-01-29T03:46:19.195Z,-0.67
2023-01-29T03:48:50.199Z,-0.71
2023-01-29T03:51:26.675Z,-0.76
2023-01-29T03:54:07.143Z,-0.88
2023-01-29T03:56:35.165Z,-1.01
2023-01-29T03:59:15.696Z,-1.11
2023-01-29T04:02:01.695Z,-1.17
2023-01-29T04:04:34.326Z,-1.19
2023-01-29T04:07:12.381Z,-1.21
2023-01-29T04:09:47.150Z,-1.20
2023-01-29T04:12:17.914Z,-1.21
2023-01-29T04:14:47.009Z,-1.29
2023-01-29T04:17:28.061Z,-1.26
2023-01-29T04:20:04.202Z,-1.23
2023-01-29T04:22:34.428Z,-1.19
2023-01-29T04:25:08.619Z,-1.19
2023-01-29T04:27:36.958Z,-1.19
2023-01-29T04:30:15.124Z,-1.25
2023-01-29T04:32:49.592Z,-1.29
2023-01-29T04:35:22.423Z,-1.21
2023-01-29T04:37:57.084Z,-1.21
2023-01-29T04:40:51.142Z,-1.20
2023-01-29T04:43:32.247Z,-1.07
2023-01-29T04:46:00.124Z,-0.95
2023-01-29T04:48:31.419Z,-0.90
2023-01-29T04:51:05.790Z,-0.93
2023-01-29T04:53:52.729Z,-1.03
2023-01-29T04:56:31.558Z,-1.11
2023-01-29T04:59:03.318Z,-1.21
2023-01-29T05:01:33.445Z,-1.28
2023-01-29T05:04:03.864Z,-1.33
2023-01-29T05:06:32.946Z,-1.37
2023-01-29T05:09:01.781Z,-1.42
2023-01-29T05:11:31.151Z,-1.47
2023-01-29T05:14:00.364Z,-1.52
2023-01-29T05:16:30.071Z,-1.58
2023-01-29T05:18:58.005Z,-1.62
2023-01-29T05:21:27.151Z,-1.66
2023-01-29T05:24:12.451Z,-1.73
2023-01-29T05:27:01.205Z,-1.85
2023-01-29T05:29:29.485Z,-1.87
2023-01-29T05:31:57.429Z,-1.89
2023-01-29T05:34:25.780Z,-1.92
2023-01-29T05:36:53.704Z,-1.97
2023-01-29T05:39:21.609Z,-2.01
2023-01-29T05:41:49.477Z,-2.06
2023-01-29T05:44:17.578Z,-2.10
2023-01-29T05:46:46.234Z,-2.13
2023-01-29T05:49:14.190Z,-2.15
2023-01-29T05:51:42.099Z,-2.17
2023-01-29T05:54:13.561Z,-2.15
2023-01-29T05:56:41.501Z,-2.14
2023-01-29T05:59:09.505Z,-2.15
2023-01-29T06:01:37.633Z,-2.13
2023-01-29T06:04:05.770Z,-2.11
2023-01-29T06:06:33.953Z,-2.06
2023-01-29T06:09:02.030Z,-2.04
2023-01-29T06:11:30.011Z,-2.03
2023-01-29T06:13:57.994Z,-2.05
2023-01-29T06:16:25.995Z,-2.05
2023-01-29T06:18:53.888Z,-2.08
2023-01-29T06:21:21.915Z,-2.03
2023-01-29T06:23:52.281Z,-2.00
2023-01-29T06:26:20.200Z,-1.94
2023-01-29T06:28:51.678Z,-1.90
2023-01-29T06:31:36.630Z,-1.88
2023-01-29T06:34:06.292Z,-1.88
2023-01-29T06:36:34.692Z,-1.89
2023-01-29T06:39:03.171Z,-1.85
2023-01-29T06:41:31.056Z,-1.88
2023-01-29T06:43:59.194Z,-1.89
2023-01-29T06:46:27.056Z,-2.00
2023-01-29T06:48:57.611Z,-1.91
2023-01-29T06:51:25.778Z,-1.85
2023-01-29T06:53:56.161Z,-1.76
2023-01-29T06:56:24.541Z,-1.77
2023-01-29T06:58:52.597Z,-1.85
2023-01-29T07:01:34.516Z,-1.84
2023-01-29T07:04:03.199Z,-1.81
2023-01-29T07:06:31.699Z,-2.00
2023-01-29T07:08:59.835Z,-2.05
2023-01-29T07:11:27.807Z,-2.16
2023-01-29T07:13:55.674Z,-2.09
2023-01-29T07:16:25.004Z,-2.04
2023-01-29T07:18:53.153Z,-1.85
2023-01-29T07:21:21.121Z,-1.85
2023-01-29T07:23:48.992Z,-1.80
2023-01-29T07:26:17.366Z,-1.67
2023-01-29T07:28:45.281Z,-1.62
2023-01-29T07:31:15.421Z,-1.58
2023-01-29T07:33:44.548Z,-1.48
2023-01-29T07:36:13.089Z,-1.37
2023-01-29T07:38:41.294Z,-1.28
2023-01-29T07:41:10.077Z,-1.36
2023-01-29T07:43:38.068Z,-1.26
2023-01-29T07:46:06.239Z,-1.21
2023-01-29T07:48:34.426Z,-1.21
2023-01-29T07:51:02.407Z,-1.22
2023-01-29T07:53:30.543Z,-1.19
2023-01-29T07:55:58.569Z,-1.15
2023-01-29T07:58:26.481Z,-1.13
2023-01-29T08:00:54.375Z,-0.98
2023-01-29T08:03:22.342Z,-0.95
2023-01-29T08:05:50.458Z,-0.96
2023-01-29T08:08:19.492Z,-0.91
2023-01-29T08:10:47.443Z,-0.84
2023-01-29T08:13:15.408Z,-0.80
2023-01-29T08:15:45.625Z,-0.68
2023-01-29T08:18:14.025Z,-0.63
2023-01-29T08:20:41.983Z,-0.65
2023-01-29T08:23:14.893Z,-0.67
2023-01-29T08:25:42.909Z,-0.63
2023-01-29T08:28:11.999Z,-0.59
2023-01-29T08:30:40.600Z,-0.62
2023-01-29T08:33:08.610Z,-0.62
2023-01-29T08:35:37.245Z,-0.52
2023-01-29T08:38:05.356Z,-0.41
2023-01-29T08:40:34.423Z,-0.35
2023-01-29T08:43:04.100Z,-0.38
2023-01-29T08:45:34.330Z,-0.30
2023-01-29T08:48:02.418Z,-0.27
2023-01-29T08:50:32.253Z,-0.28
2023-01-29T08:53:00.819Z,-0.19
2023-01-29T08:55:29.111Z,-0.22
2023-01-29T08:58:00.118Z,-0.06
2023-01-29T09:00:28.359Z,0.01
2023-01-29T09:02:56.328Z,0.03
2023-01-29T09:05:24.278Z,0.12
2023-01-29T09:07:54.180Z,0.17
2023-01-29T09:10:22.320Z,0.21
2023-01-29T09:12:50.246Z,0.28
2023-01-29T09:15:18.584Z,0.25
2023-01-29T09:17:46.912Z,0.01
2023-01-29T09:20:15.081Z,0.16
2023-01-29T09:22:43.413Z,0.20
2023-01-29T09:25:12.204Z,0.25
2023-01-29T09:27:40.280Z,0.22
2023-01-29T09:30:08.670Z,0.26
2023-01-29T09:32:53.140Z,0.25
2023-01-29T09:35:22.879Z,0.30
2023-01-29T09:37:51.298Z,0.34
2023-01-29T09:40:39.471Z,0.29
2023-01-29T09:43:13.121Z,0.25
2023-01-29T09:45:56.215Z,0.27
2023-01-29T09:48:26.656Z,0.27
2023-01-29T09:50:56.475Z,0.25
2023-01-29T09:53:28.082Z,0.25
2023-01-29T09:56:09.133Z,0.35
2023-01-29T09:58:38.634Z,0.45
2023-01-29T10:01:25.128Z,0.46
2023-01-29T10:03:59.182Z,0.50
2023-01-29T10:06:30.153Z,0.56
2023-01-29T10:09:04.112Z,0.47
2023-01-29T10:11:38.227Z,0.42
2023-01-29T10:14:21.963Z,0.37
2023-01-29T10:16:57.874Z,0.34
2023-01-29T10:19:36.053Z,0.32
2023-01-29T10:22:14.314Z,0.17
2023-01-29T10:24:51.378Z,-0.02
2023-01-29T10:27:20.147Z,-0.14
2023-01-29T10:29:52.233Z,-0.23
2023-01-29T10:32:22.774Z,-0.31
2023-01-29T10:35:00.426Z,-0.35
2023-01-29T10:37:36.590Z,-0.42
2023-01-29T10:40:17.504Z,-0.52
2023-01-29T10:42:50.726Z,-0.57
2023-01-29T10:45:24.832Z,-0.57
2023-01-29T10:47:53.107Z,-0.54
2023-01-29T10:50:28.750Z,-0.52
2023-01-29T10:53:10.366Z,-0.53
2023-01-29T10:55:47.187Z,-0.51
2023-01-29T10:58:34.681Z,-0.46
2023-01-29T11:01:02.749Z,-0.48
2023-01-29T11:03:32.399Z,-0.48
2023-01-29T11:06:00.445Z,-0.52
2023-01-29T11:08:31.232Z,-0.53
2023-01-29T11:11:09.830Z,-0.53
2023-01-29T11:13:43.031Z,-0.59
2023-01-29T11:16:11.104Z,-0.63
2023-01-29T11:18:56.154Z,-0.59
2023-01-29T11:21:24.952Z,-0.56
2023-01-29T11:24:06.529Z,-0.61
2023-01-29T11:26:39.827Z,-0.70
2023-01-29T11:29:27.301Z,-0.78
2023-01-29T11:31:55.601Z,-0.80
2023-01-29T11:34:27.943Z,-0.80
2023-01-29T11:37:15.382Z,-0.76
2023-01-29T11:39:45.095Z,-0.71
2023-01-29T11:42:22.998Z,-0.72
2023-01-29T11:44:51.075Z,-0.72
2023-01-29T11:47:26.206Z,-0.71
2023-01-29T11:49:58.474Z,-0.71
2023-01-29T11:52:34.456Z,-0.72
2023-01-29T11:55:21.494Z,-0.74
2023-01-29T11:58:04.517Z,-0.82
2023-01-29T12:00:35.757Z,-0.89
2023-01-29T12:03:12.976Z,-0.89
2023-01-29T12:05:41.163Z,-0.92
2023-01-29T12:08:17.040Z,-0.89
2023-01-29T12:10:45.168Z,-0.87
2023-01-29T12:13:15.400Z,-0.82
2023-01-29T12:15:43.615Z,-0.81
2023-01-29T12:18:14.806Z,-0.80
2023-01-29T12:20:46.516Z,-0.80
2023-01-29T12:23:23.059Z,-0.82
2023-01-29T12:26:13.000Z,-0.86
2023-01-29T12:28:45.324Z,-0.86
2023-01-29T12:31:32.130Z,-0.86
2023-01-29T12:34:09.657Z,-0.89
2023-01-29T12:36:37.617Z,-0.90
2023-01-29T12:39:05.610Z,-0.95
2023-01-29T12:41:40.226Z,-1.01
2023-01-29T12:44:20.079Z,-1.05
2023-01-29T12:46:50.889Z,-1.07
2023-01-29T12:49:22.384Z,-1.07
2023-01-29T12:51:56.960Z,-1.09
2023-01-29T12:54:43.227Z,-1.08
2023-01-29T12:57:18.702Z,-1.09
2023-01-29T12:59:50.337Z,-1.13
2023-01-29T13:02:21.380Z,-1.19
2023-01-29T13:04:56.067Z,-1.27
2023-01-29T13:07:28.318Z,-1.34
2023-01-29T13:10:01.638Z,-1.37
2023-01-29T13:12:31.269Z,-1.44
2023-01-29T13:15:01.378Z,-1.42
2023-01-29T13:17:47.840Z,-1.44
2023-01-29T13:20:24.730Z,-1.43
2023-01-29T13:22:54.495Z,-1.41
2023-01-29T13:25:22.515Z,-1.40
2023-01-29T13:27:50.902Z,-1.42
2023-01-29T13:30:29.525Z,-1.44
2023-01-29T13:33:09.710Z,-1.46
2023-01-29T13:35:40.305Z,-1.49
2023-01-29T13:38:28.579Z,-1.51
2023-01-29T13:41:00.452Z,-1.54
2023-01-29T13:43:32.520Z,-1.56
2023-01-29T13:46:07.380Z,-1.61
2023-01-29T13:48:41.706Z,-1.66
2023-01-29T13:51:15.735Z,-1.68
2023-01-29T13:53:52.191Z,-1.69
2023-01-29T13:56:32.841Z,-1.69
2023-01-29T13:59:05.480Z,-1.73
2023-01-29T14:01:48.925Z,-1.75
2023-01-29T14:04:23.201Z,-1.77
2023-01-29T14:07:03.287Z,-1.79
2023-01-29T14:09:34.235Z,-1.81
2023-01-29T14:12:02.339Z,-1.86
2023-01-29T14:14:48.469Z,-1.90
2023-01-29T14:17:17.449Z,-1.91
2023-01-29T14:19:53.125Z,-1.91
2023-01-29T14:22:22.923Z,-1.92
2023-01-29T14:24:54.100Z,-1.94
2023-01-29T14:27:23.093Z,-1.94
2023-01-29T14:29:57.560Z,-1.96
2023-01-29T14:32:26.328Z,-1.99
2023-01-29T14:35:01.685Z,-1.99
2023-01-29T14:37:29.640Z,-1.96
2023-01-29T14:40:16.356Z,-1.96
2023-01-29T14:42:52.461Z,-1.99
2023-01-29T14:45:26.662Z,-2.02
2023-01-29T14:47:56.604Z,-2.01
2023-01-29T14:50:34.797Z,-1.97
2023-01-29T14:53:15.516Z,-1.95
2023-01-29T14:56:01.567Z,-1.91
2023-01-29T14:58:29.520Z,-1.91
2023-01-29T15:00:58.631Z,-1.91
2023-01-29T15:03:26.596Z,-1.92
2023-01-29T15:05:55.771Z,-1.91
2023-01-29T15:08:30.095Z,-1.92
2023-01-29T15:11:18.274Z,-1.95
2023-01-29T15:13:52.095Z,-1.93
2023-01-29T15:16:25.554Z,-1.98
2023-01-29T15:18:57.394Z,-2.00
2023-01-29T15:21:25.486Z,-2.02
2023-01-29T15:24:04.319Z,-2.03
2023-01-29T15:26:32.687Z,-2.06
2023-01-29T15:29:04.632Z,-2.07
2023-01-29T15:31:35.257Z,-2.07
2023-01-29T15:34:06.521Z,-2.11
2023-01-29T15:36:36.803Z,-2.11
2023-01-29T15:39:10.654Z,-2.13
2023-01-29T15:41:39.035Z,-2.15
2023-01-29T15:44:16.437Z,-2.18
2023-01-29T15:47:04.602Z,-2.19
2023-01-29T15:49:34.515Z,-2.22
2023-01-29T15:52:15.738Z,-2.19
2023-01-29T15:54:44.245Z,-2.18
2023-01-29T15:57:18.741Z,-2.17
2023-01-29T15:59:51.753Z,-2.13
2023-01-29T16:02:28.303Z,-2.12
2023-01-29T16:04:56.588Z,-2.08
2023-01-29T16:07:24.760Z,-2.05
2023-01-29T16:09:53.017Z,-2.00
2023-01-29T16:12:21.537Z,-1.97
2023-01-29T16:14:50.253Z,-1.93
2023-01-29T16:17:25.375Z,-1.89
2023-01-29T16:19:57.212Z,-1.89
2023-01-29T16:22:26.378Z,-1.88
2023-01-29T16:24:54.710Z,-1.92
2023-01-29T16:27:25.023Z,-1.92
2023-01-29T16:29:53.508Z,-1.97
2023-01-29T16:32:21.532Z,-2.01
2023-01-29T16:34:50.146Z,-1.99
2023-01-29T16:37:26.734Z,-1.99
2023-01-29T16:39:54.665Z,-2.00
2023-01-29T16:42:24.210Z,-2.00
2023-01-29T16:44:58.359Z,-2.01
2023-01-29T16:47:41.538Z,-2.04
2023-01-29T16:50:21.871Z,-2.06
2023-01-29T16:52:58.180Z,-2.05
2023-01-29T16:55:27.129Z,-2.05
2023-01-29T16:57:55.911Z,-2.04
2023-01-29T17:00:23.919Z,-2.06
2023-01-29T17:02:53.828Z,-2.12
2023-01-29T17:05:29.845Z,-2.14
2023-01-29T17:07:58.849Z,-2.15
2023-01-29T17:10:27.779Z,-2.20
2023-01-29T17:13:02.668Z,-2.20
2023-01-29T17:15:44.456Z,-2.23
2023-01-29T17:18:19.228Z,-2.27
2023-01-29T17:20:47.441Z,-2.27
2023-01-29T17:23:15.415Z,-2.31
2023-01-29T17:25:44.039Z,-2.34
2023-01-29T17:28:16.514Z,-2.38
2023-01-29T17:30:50.689Z,-2.37
2023-01-29T17:33:22.820Z,-2.39
2023-01-29T17:35:50.897Z,-2.38
2023-01-29T17:38:25.974Z,-2.36
2023-01-29T17:40:57.048Z,-2.37
2023-01-29T17:43:25.043Z,-2.37
2023-01-29T17:45:53.187Z,-2.37
2023-01-29T17:48:21.428Z,-2.39
2023-01-29T17:50:53.046Z,-2.39
2023-01-29T17:53:21.941Z,-2.39
2023-01-29T17:55:50.109Z,-2.41
2023-01-29T17:58:23.062Z,-2.42
2023-01-29T18:00:51.196Z,-2.41
2023-01-29T18:03:19.301Z,-2.42
2023-01-29T18:05:47.902Z,-2.45
2023-01-29T18:08:27.938Z,-2.52
2023-01-29T18:10:56.103Z,-2.56
2023-01-29T18:13:24.413Z,-2.57
2023-01-29T18:15:52.783Z,-2.60
2023-01-29T18:18:21.973Z,-2.61
2023-01-29T18:20:50.663Z,-2.61
2023-01-29T18:23:18.849Z,-2.61
2023-01-29T18:25:47.872Z,-2.61
2023-01-29T18:28:17.360Z,-2.63
2023-01-29T18:30:47.648Z,-2.64
2023-01-29T18:33:16.406Z,-2.63
2023-01-29T18:35:50.778Z,-2.65
2023-01-29T18:38:18.781Z,-2.67
2023-01-29T18:40:47.065Z,-2.73
2023-01-29T18:43:15.144Z,-2.72
2023-01-29T18:45:43.040Z,-2.75
2023-01-29T18:48:11.088Z,-2.78
2023-01-29T18:50:39.113Z,-2.81
2023-01-29T18:53:07.859Z,-2.81
2023-01-29T18:55:35.795Z,-2.83
2023-01-29T18:58:27.946Z,-2.83
2023-01-29T19:00:51.978Z,-2.85
2023-01-29T19:03:19.865Z,-2.89
2023-01-29T19:05:47.988Z,-2.93
2023-01-29T19:08:16.066Z,-2.98
2023-01-29T19:10:44.511Z,-2.99
2023-01-29T19:13:12.439Z,-2.95
2023-01-29T19:15:41.694Z,-2.93
2023-01-29T19:18:09.835Z,-2.96
2023-01-29T19:20:39.599Z,-2.99
2023-01-29T19:23:08.583Z,-3.01
2023-01-29T19:25:38.289Z,-3.05
2023-01-29T19:28:07.401Z,-3.06
2023-01-29T19:30:35.380Z,-3.07
2023-01-29T19:33:03.328Z,-3.06
2023-01-29T19:35:32.656Z,-3.06
2023-01-29T19:38:01.330Z,-3.08
2023-01-29T19:40:29.281Z,-3.07
2023-01-29T19:42:58.304Z,-3.04
2023-01-29T19:45:37.488Z,-3.05
2023-01-29T19:48:20.405Z,-3.05
2023-01-29T19:50:52.574Z,-3.07
2023-01-29T19:53:20.696Z,-3.03
2023-01-29T19:55:56.493Z,-3.03
2023-01-29T19:58:25.410Z,-3.02
2023-01-29T20:00:54.308Z,-3.06
2023-01-29T20:03:22.368Z,-3.03
2023-01-29T20:05:50.352Z,-3.03
2023-01-29T20:08:19.129Z,-3.06
2023-01-29T20:10:47.831Z,-3.05
2023-01-29T20:13:16.416Z,-3.05
2023-01-29T20:15:49.033Z,-3.03
2023-01-29T20:18:17.393Z,-3.03
2023-01-29T20:20:46.918Z,-2.99
2023-01-29T20:23:22.301Z,-2.97
2023-01-29T20:25:59.684Z,-3.00
2023-01-29T20:28:27.982Z,-2.97
2023-01-29T20:30:58.175Z,-2.98
2023-01-29T20:33:26.842Z,-3.02
2023-01-29T20:35:56.174Z,-3.02
2023-01-29T20:38:26.226Z,-3.01
2023-01-29T20:40:54.379Z,-3.05
2023-01-29T20:43:22.988Z,-3.04
2023-01-29T20:45:50.967Z,-3.05
2023-01-29T20:48:19.340Z,-3.02
2023-01-29T20:50:47.312Z,-2.99
2023-01-29T20:53:15.273Z,-3.00
2023-01-29T20:55:44.808Z,-3.03
2023-01-29T20:58:12.977Z,-3.04
2023-01-29T21:00:41.447Z,-3.08
2023-01-29T21:03:09.423Z,-3.08
2023-01-29T21:05:37.377Z,-3.09
2023-01-29T21:08:05.550Z,-3.09
2023-01-29T21:10:33.561Z,-3.08
2023-01-29T21:13:01.560Z,-3.08
2023-01-29T21:15:29.706Z,-3.15
2023-01-29T21:17:59.773Z,-3.21
2023-01-29T21:20:27.681Z,-3.25
2023-01-29T21:22:55.657Z,-3.27
2023-01-29T21:25:23.620Z,-3.27
2023-01-29T21:27:51.575Z,-3.28
2023-01-29T21:30:20.272Z,-3.27
2023-01-29T21:32:48.445Z,-3.25
2023-01-29T21:35:16.634Z,-3.26
2023-01-29T21:37:44.544Z,-3.26
2023-01-29T21:40:12.791Z,-3.27
2023-01-29T21:42:59.563Z,-3.27
2023-01-29T21:45:27.536Z,-3.26
2023-01-29T21:47:55.557Z,-3.20
2023-01-29T21:50:23.417Z,-3.16
2023-01-29T21:52:51.412Z,-3.15
2023-01-29T21:55:19.293Z,-3.15
2023-01-29T21:57:47.265Z,-3.14
2023-01-29T22:00:15.818Z,-3.18
2023-01-29T22:02:44.517Z,-3.14
2023-01-29T22:05:19.472Z,-3.10
2023-01-29T22:07:48.692Z,-3.10
2023-01-29T22:10:17.966Z,-3.03
2023-01-29T22:12:46.598Z,-2.98
2023-01-29T22:15:15.215Z,-2.98
2023-01-29T22:17:43.967Z,-2.95
2023-01-29T22:20:12.984Z,-2.93
2023-01-29T22:22:40.846Z,-2.90
2023-01-29T22:25:09.661Z,-2.84
2023-01-29T22:27:38.025Z,-2.83
2023-01-29T22:30:06.632Z,-2.81
2023-01-29T22:32:34.597Z,-2.76
2023-01-29T22:35:02.591Z,-2.74
2023-01-29T22:37:30.852Z,-2.74
2023-01-29T22:39:58.838Z,-2.75
2023-01-29T22:42:28.039Z,-2.76
2023-01-29T22:44:56.019Z,-2.73
2023-01-29T22:47:24.070Z,-2.73
2023-01-29T22:49:52.581Z,-2.71
2023-01-29T22:52:21.302Z,-2.69
2023-01-29T22:54:49.243Z,-2.66
2023-01-29T22:57:17.177Z,-2.61
2023-01-29T22:59:45.145Z,-2.62
2023-01-29T23:02:13.159Z,-2.62
2023-01-29T23:04:41.185Z,-2.63
2023-01-29T23:07:09.347Z,-2.64
2023-01-29T23:09:37.391Z,-2.66
2023-01-29T23:12:05.969Z,-2.69
2023-01-29T23:14:33.807Z,-2.70
2023-01-29T23:17:01.693Z,-2.68
2023-01-29T23:19:30.595Z,-2.67
2023-01-29T23:21:58.536Z,-2.65
2023-01-29T23:24:26.829Z,-2.66
2023-01-29T23:27:13.411Z,-2.63
2023-01-29T23:29:42.493Z,-2.63
2023-01-29T23:32:11.230Z,-2.63
2023-01-29T23:34:39.197Z,-2.65
2023-01-29T23:37:07.557Z,-2.66
2023-01-29T23:39:35.587Z,-2.69
2023-01-29T23:42:03.546Z,-2.69
2023-01-29T23:44:31.427Z,-2.68
2023-01-29T23:46:59.757Z,-2.67
2023-01-29T23:49:27.787Z,-2.76
2023-01-29T23:51:55.858Z,-2.73
2023-01-29T23:54:23.848Z,-2.70
2023-01-29T23:56:51.723Z,-2.78
2023-01-29T23:59:19.814Z,-2.83
